createdAt,value
2023-05-09T00:00:19.748Z,1008.14
2023-05-09T00:01:19.955Z,1008.09
2023-05-09T00:02:20.126Z,1008.11
2023-05-09T00:03:20.347Z,1008.11
2023-05-09T00:04:20.489Z,1008.12
2023-05-09T00:05:21.861Z,1008.16
2023-05-09T00:06:20.890Z,1008.09
2023-05-09T00:07:21.040Z,1008.12
2023-05-09T00:08:21.908Z,1008.08
2023-05-09T00:09:21.444Z,1008.07
2023-05-09T00:10:21.607Z,1008.04
2023-05-09T00:11:22.368Z,1008.10
2023-05-09T00:12:22.006Z,1008.03
2023-05-09T00:13:22.344Z,1008.01
2023-05-09T00:14:22.413Z,1007.99
2023-05-09T00:15:24.248Z,1008.00
2023-05-09T00:16:23.431Z,1007.99
2023-05-09T00:17:22.983Z,1008.04
2023-05-09T00:18:23.146Z,1007.96
2023-05-09T00:19:23.870Z,1007.96
2023-05-09T00:20:23.926Z,1007.92
2023-05-09T00:21:24.362Z,1007.94
2023-05-09T00:22:25.374Z,1007.97
2023-05-09T00:23:24.919Z,1007.91
2023-05-09T00:24:24.905Z,1007.85
2023-05-09T00:25:24.392Z,1007.85
2023-05-09T00:26:25.398Z,1007.95
2023-05-09T00:27:24.764Z,1007.89
2023-05-09T00:28:25.971Z,1007.88
2023-05-09T00:29:25.117Z,1007.84
2023-05-09T00:30:25.865Z,1007.82
2023-05-09T00:31:25.524Z,1007.85
2023-05-09T00:32:26.384Z,1007.78
2023-05-09T00:33:25.903Z,1007.79
2023-05-09T00:34:26.066Z,1007.82
2023-05-09T00:35:26.216Z,1007.79
2023-05-09T00:36:26.394Z,1007.84
2023-05-09T00:37:26.549Z,1007.74
2023-05-09T00:38:27.868Z,1007.70
2023-05-09T00:39:26.893Z,1007.77
2023-05-09T00:40:28.390Z,1007.75
2023-05-09T00:41:27.159Z,1007.72
2023-05-09T00:42:27.310Z,1007.73
2023-05-09T00:43:27.608Z,1007.75
2023-05-09T00:44:28.418Z,1007.64
2023-05-09T00:45:27.807Z,1007.74
2023-05-09T00:46:28.024Z,1007.74
2023-05-09T00:47:29.908Z,1007.75
2023-05-09T00:48:28.452Z,1007.65
2023-05-09T00:49:28.618Z,1007.66
2023-05-09T00:50:28.776Z,1007.61
2023-05-09T00:51:29.875Z,1007.67
2023-05-09T00:52:29.923Z,1007.58
2023-05-09T00:53:29.337Z,1007.57
2023-05-09T00:54:29.499Z,1007.56
2023-05-09T00:55:29.658Z,1007.52
2023-05-09T00:56:29.805Z,1007.53
2023-05-09T00:57:29.959Z,1007.50
2023-05-09T00:58:30.993Z,1007.46
2023-05-09T00:59:30.266Z,1007.52
2023-05-09T01:00:30.434Z,1007.43
2023-05-09T01:01:31.422Z,1007.48
2023-05-09T01:02:30.748Z,1007.43
2023-05-09T01:03:32.031Z,1007.46
2023-05-09T01:04:31.115Z,1007.49
2023-05-09T01:05:31.309Z,1007.44
2023-05-09T01:06:31.484Z,1007.41
2023-05-09T01:07:33.377Z,1007.45
2023-05-09T01:08:31.869Z,1007.45
2023-05-09T01:09:32.930Z,1007.45
2023-05-09T01:10:32.221Z,1007.47
2023-05-09T01:11:32.429Z,1007.47
2023-05-09T01:12:32.576Z,1007.43
2023-05-09T01:13:32.736Z,1007.51
2023-05-09T01:14:34.493Z,1007.48
2023-05-09T01:15:33.109Z,1007.44
2023-05-09T01:16:33.325Z,1007.48
2023-05-09T01:17:34.894Z,1007.52
2023-05-09T01:18:34.412Z,1007.51
2023-05-09T01:19:34.885Z,1007.43
2023-05-09T01:20:34.029Z,1007.52
2023-05-09T01:21:34.199Z,1007.46
2023-05-09T01:22:34.386Z,1007.45
2023-05-09T01:23:34.533Z,1007.44
2023-05-09T01:24:34.705Z,1007.41
2023-05-09T01:25:34.881Z,1007.38
2023-05-09T01:26:35.892Z,1007.33
2023-05-09T01:27:35.284Z,1007.39
2023-05-09T01:28:35.926Z,1007.37
2023-05-09T01:29:35.585Z,1007.35
2023-05-09T01:30:35.875Z,1007.33
2023-05-09T01:31:36.027Z,1007.35
2023-05-09T01:32:36.265Z,1007.33
2023-05-09T01:33:36.426Z,1007.24
2023-05-09T01:34:37.888Z,1007.28
2023-05-09T01:35:36.760Z,1007.30
2023-05-09T01:36:37.402Z,1007.21
2023-05-09T01:37:39.778Z,1007.23
2023-05-09T01:38:37.440Z,1007.29
2023-05-09T01:39:37.467Z,1007.27
2023-05-09T01:40:37.610Z,1007.22
2023-05-09T01:41:37.739Z,1007.20
2023-05-09T01:42:37.922Z,1007.20
2023-05-09T01:43:38.942Z,1007.17
2023-05-09T01:44:38.289Z,1007.16
2023-05-09T01:45:38.598Z,1007.17
2023-05-09T01:46:39.480Z,1007.19
2023-05-09T01:47:38.794Z,1007.30
2023-05-09T01:48:39.938Z,1007.30
2023-05-09T01:49:39.182Z,1007.29
2023-05-09T01:50:39.894Z,1007.30
2023-05-09T01:51:40.342Z,1007.27
2023-05-09T01:52:39.947Z,1007.27
2023-05-09T01:53:40.433Z,1007.24
2023-05-09T01:54:40.932Z,1007.26
2023-05-09T01:55:40.963Z,1007.24
2023-05-09T01:56:40.467Z,1007.22
2023-05-09T01:57:40.641Z,1007.21
2023-05-09T01:58:40.806Z,1007.20
2023-05-09T01:59:40.968Z,1007.22
2023-05-09T02:00:41.338Z,1007.16
2023-05-09T02:01:41.311Z,1007.18
2023-05-09T02:02:41.547Z,1007.25
2023-05-09T02:03:42.465Z,1007.16
2023-05-09T02:04:43.401Z,1007.19
2023-05-09T02:05:42.044Z,1007.12
2023-05-09T02:06:42.940Z,1007.18
2023-05-09T02:07:42.904Z,1007.15
2023-05-09T02:08:43.436Z,1007.20
2023-05-09T02:09:43.431Z,1007.22
2023-05-09T02:10:42.949Z,1007.25
2023-05-09T02:11:43.932Z,1007.25
2023-05-09T02:12:43.366Z,1007.23
2023-05-09T02:13:44.519Z,1007.21
2023-05-09T02:14:44.676Z,1007.24
2023-05-09T02:15:43.853Z,1007.20
2023-05-09T02:16:44.256Z,1007.21
2023-05-09T02:17:44.991Z,1007.22
2023-05-09T02:18:44.381Z,1007.22
2023-05-09T02:19:44.515Z,1007.20
2023-05-09T02:20:45.476Z,1007.18
2023-05-09T02:21:45.442Z,1007.26
2023-05-09T02:22:46.399Z,1007.18
2023-05-09T02:23:45.258Z,1007.18
2023-05-09T02:24:45.404Z,1007.13
2023-05-09T02:25:45.580Z,1007.19
2023-05-09T02:26:45.728Z,1007.14
2023-05-09T02:27:45.864Z,1007.19
2023-05-09T02:28:46.949Z,1007.17
2023-05-09T02:29:46.950Z,1007.26
2023-05-09T02:30:46.458Z,1007.15
2023-05-09T02:31:46.474Z,1007.17
2023-05-09T02:32:46.804Z,1007.19
2023-05-09T02:33:47.406Z,1007.17
2023-05-09T02:34:47.005Z,1007.16
2023-05-09T02:35:48.922Z,1007.16
2023-05-09T02:36:47.276Z,1007.12
2023-05-09T02:37:48.398Z,1007.16
2023-05-09T02:38:47.618Z,1007.14
2023-05-09T02:39:47.740Z,1007.14
2023-05-09T02:40:50.322Z,1007.17
2023-05-09T02:41:48.065Z,1007.15
2023-05-09T02:42:48.364Z,1007.08
2023-05-09T02:43:49.405Z,1007.08
2023-05-09T02:44:49.411Z,1007.14
2023-05-09T02:45:48.807Z,1007.09
2023-05-09T02:46:49.959Z,1007.08
2023-05-09T02:47:49.347Z,1007.13
2023-05-09T02:48:49.410Z,1007.14
2023-05-09T02:49:51.416Z,1007.13
2023-05-09T02:50:50.299Z,1007.14
2023-05-09T02:51:50.907Z,1007.18
2023-05-09T02:52:50.914Z,1007.19
2023-05-09T02:53:50.793Z,1007.17
2023-05-09T02:54:50.423Z,1007.18
2023-05-09T02:55:50.564Z,1007.15
2023-05-09T02:56:50.713Z,1007.18
2023-05-09T02:57:58.908Z,1007.24
2023-05-09T02:58:52.950Z,1007.19
2023-05-09T02:59:51.157Z,1007.21
2023-05-09T03:00:51.329Z,1007.18
2023-05-09T03:01:51.519Z,1007.23
2023-05-09T03:02:51.756Z,1007.14
2023-05-09T03:03:52.122Z,1007.20
2023-05-09T03:04:52.093Z,1007.24
2023-05-09T03:05:52.915Z,1007.15
2023-05-09T03:06:52.447Z,1007.26
2023-05-09T03:07:52.588Z,1007.20
2023-05-09T03:08:52.723Z,1007.27
2023-05-09T03:09:53.481Z,1007.22
2023-05-09T03:10:53.918Z,1007.17
2023-05-09T03:11:53.280Z,1007.21
2023-05-09T03:12:53.499Z,1007.18
2023-05-09T03:13:53.649Z,1007.15
2023-05-09T03:14:54.418Z,1007.15
2023-05-09T03:15:54.928Z,1007.14
2023-05-09T03:16:54.919Z,1007.13
2023-05-09T03:17:54.428Z,1007.17
2023-05-09T03:18:54.704Z,1007.14
2023-05-09T03:19:55.474Z,1007.07
2023-05-09T03:20:55.483Z,1007.08
2023-05-09T03:21:55.108Z,1007.12
2023-05-09T03:22:55.273Z,1007.02
2023-05-09T03:23:56.416Z,1007.05
2023-05-09T03:24:55.558Z,1007.09
2023-05-09T03:25:56.475Z,1007.04
2023-05-09T03:26:55.886Z,1007.09
2023-05-09T03:27:57.927Z,1007.03
2023-05-09T03:28:56.142Z,1007.09
2023-05-09T03:29:56.308Z,1007.11
2023-05-09T03:30:56.443Z,1007.05
2023-05-09T03:31:56.608Z,1007.08
2023-05-09T03:32:58.456Z,1007.02
2023-05-09T03:33:57.608Z,1007.00
2023-05-09T03:34:57.194Z,1006.99
2023-05-09T03:35:57.373Z,1007.01
2023-05-09T03:36:57.501Z,1006.93
2023-05-09T03:37:58.926Z,1006.85
2023-05-09T03:38:58.479Z,1006.82
2023-05-09T03:39:59.423Z,1006.82
2023-05-09T03:40:58.163Z,1006.80
2023-05-09T03:41:59.926Z,1006.81
2023-05-09T03:42:58.541Z,1006.79
2023-05-09T03:43:58.691Z,1006.81
2023-05-09T03:44:58.850Z,1006.83
2023-05-09T03:45:59.007Z,1006.80
2023-05-09T03:47:00.061Z,1006.81
2023-05-09T03:47:59.952Z,1006.73
2023-05-09T03:49:00.542Z,1006.69
2023-05-09T03:49:59.694Z,1006.69
2023-05-09T03:51:00.472Z,1006.65
2023-05-09T03:52:00.042Z,1006.68
2023-05-09T03:53:00.258Z,1006.65
2023-05-09T03:54:00.423Z,1006.59
2023-05-09T03:55:00.618Z,1006.62
2023-05-09T03:56:00.768Z,1006.62
2023-05-09T03:57:00.934Z,1006.63
2023-05-09T03:58:01.125Z,1006.53
2023-05-09T03:59:01.280Z,1006.53
2023-05-09T04:00:01.476Z,1006.51
2023-05-09T04:01:02.475Z,1006.58
2023-05-09T04:02:02.465Z,1006.45
2023-05-09T04:03:02.063Z,1006.45
2023-05-09T04:04:02.185Z,1006.48
2023-05-09T04:05:02.510Z,1006.36
2023-05-09T04:06:02.990Z,1006.39
2023-05-09T04:07:02.773Z,1006.41
2023-05-09T04:08:02.943Z,1006.37
2023-05-09T04:09:03.107Z,1006.35
2023-05-09T04:10:03.258Z,1006.28
2023-05-09T04:11:03.521Z,1006.31
2023-05-09T04:12:03.663Z,1006.36
2023-05-09T04:13:03.924Z,1006.30
2023-05-09T04:14:04.995Z,1006.28
2023-05-09T04:15:04.129Z,1006.32
2023-05-09T04:16:04.393Z,1006.34
2023-05-09T04:17:04.593Z,1006.28
2023-05-09T04:18:04.840Z,1006.18
2023-05-09T04:19:05.985Z,1006.19
2023-05-09T04:20:05.386Z,1006.15
2023-05-09T04:21:05.972Z,1006.09
2023-05-09T04:22:05.619Z,1006.05
2023-05-09T04:23:05.770Z,1006.02
2023-05-09T04:24:05.987Z,1006.03
2023-05-09T04:25:06.123Z,1006.04
2023-05-09T04:26:06.279Z,1006.09
2023-05-09T04:27:06.978Z,1006.11
2023-05-09T04:28:07.011Z,1006.16
2023-05-09T04:29:06.804Z,1005.98
2023-05-09T04:30:06.955Z,1006.01
2023-05-09T04:31:07.562Z,1006.01
2023-05-09T04:32:07.387Z,1005.98
2023-05-09T04:33:08.474Z,1006.02
2023-05-09T04:34:08.022Z,1005.94
2023-05-09T04:35:07.818Z,1005.97
2023-05-09T04:36:08.139Z,1005.92
2023-05-09T04:37:09.945Z,1005.93
2023-05-09T04:38:08.984Z,1005.91
2023-05-09T04:39:09.492Z,1005.86
2023-05-09T04:40:08.991Z,1005.76
2023-05-09T04:41:10.458Z,1005.77
2023-05-09T04:42:09.257Z,1005.77
2023-05-09T04:43:09.393Z,1005.73
2023-05-09T04:44:10.446Z,1005.76
2023-05-09T04:45:09.689Z,1005.84
2023-05-09T04:46:09.853Z,1005.82
2023-05-09T04:47:10.050Z,1005.83
2023-05-09T04:48:10.959Z,1005.86
2023-05-09T04:49:11.002Z,1005.75
2023-05-09T04:50:10.553Z,1005.78
2023-05-09T04:51:10.861Z,1005.74
2023-05-09T04:52:11.891Z,1005.70
2023-05-09T04:53:10.990Z,1005.66
2023-05-09T04:54:11.239Z,1005.64
2023-05-09T04:55:12.020Z,1005.61
2023-05-09T04:56:12.487Z,1005.59
2023-05-09T04:57:18.107Z,1005.60
2023-05-09T04:58:13.881Z,1005.53
2023-05-09T04:59:12.501Z,1005.60
2023-05-09T05:00:12.249Z,1005.48
2023-05-09T05:01:12.563Z,1005.53
2023-05-09T05:02:13.516Z,1005.44
2023-05-09T05:03:12.778Z,1005.41
2023-05-09T05:04:13.538Z,1005.38
2023-05-09T05:05:13.155Z,1005.38
2023-05-09T05:06:13.505Z,1005.34
2023-05-09T05:07:13.492Z,1005.38
2023-05-09T05:08:14.039Z,1005.28
2023-05-09T05:09:13.849Z,1005.28
2023-05-09T05:10:14.655Z,1005.23
2023-05-09T05:11:15.991Z,1005.18
2023-05-09T05:12:14.323Z,1005.16
2023-05-09T05:13:14.544Z,1005.09
2023-05-09T05:14:15.454Z,1005.02
2023-05-09T05:15:17.090Z,1004.96
2023-05-09T05:16:15.063Z,1004.81
2023-05-09T05:17:16.003Z,1004.75
2023-05-09T05:18:15.958Z,1004.50
2023-05-09T05:19:16.497Z,1004.52
2023-05-09T05:20:16.466Z,1004.43
2023-05-09T05:21:15.955Z,1004.46
2023-05-09T05:22:16.187Z,1004.45
2023-05-09T05:23:16.330Z,1004.44
2023-05-09T05:24:16.442Z,1004.42
2023-05-09T05:25:17.955Z,1004.44
2023-05-09T05:26:16.795Z,1004.39
2023-05-09T05:27:19.494Z,1004.42
2023-05-09T05:28:17.130Z,1004.36
2023-05-09T05:29:18.006Z,1004.36
2023-05-09T05:30:17.962Z,1004.33
2023-05-09T05:31:18.037Z,1004.35
2023-05-09T05:32:17.859Z,1004.34
2023-05-09T05:33:17.999Z,1004.36
2023-05-09T05:34:18.154Z,1004.30
2023-05-09T05:35:18.997Z,1004.35
2023-05-09T05:36:19.466Z,1004.38
2023-05-09T05:37:18.900Z,1004.24
2023-05-09T05:38:19.500Z,1004.17
2023-05-09T05:39:19.151Z,1004.19
2023-05-09T05:40:19.998Z,1004.20
2023-05-09T05:41:19.515Z,1004.10
2023-05-09T05:42:20.471Z,1004.11
2023-05-09T05:43:20.346Z,1004.09
2023-05-09T05:44:19.996Z,1004.02
2023-05-09T05:45:20.956Z,1004.11
2023-05-09T05:46:21.059Z,1003.96
2023-05-09T05:47:20.585Z,1003.94
2023-05-09T05:48:21.364Z,1003.98
2023-05-09T05:49:21.477Z,1003.86
2023-05-09T05:50:21.124Z,1003.83
2023-05-09T05:51:22.019Z,1003.97
2023-05-09T05:52:21.585Z,1003.90
2023-05-09T05:53:21.600Z,1003.86
2023-05-09T05:54:21.734Z,1003.87
2023-05-09T05:55:21.888Z,1003.88
2023-05-09T05:56:22.046Z,1003.86
2023-05-09T05:57:22.510Z,1003.85
2023-05-09T05:58:22.976Z,1003.83
2023-05-09T05:59:22.628Z,1003.81
2023-05-09T06:00:22.804Z,1003.79
2023-05-09T06:01:22.948Z,1003.84
2023-05-09T06:02:25.382Z,1003.79
2023-05-09T06:03:23.290Z,1003.75
2023-05-09T06:04:24.004Z,1003.75
2023-05-09T06:05:23.649Z,1003.74
2023-05-09T06:06:24.462Z,1003.72
2023-05-09T06:07:24.491Z,1003.71
2023-05-09T06:08:25.022Z,1003.64
2023-05-09T06:09:24.253Z,1003.52
2023-05-09T06:10:24.962Z,1003.47
2023-05-09T06:11:25.580Z,1003.42
2023-05-09T06:12:27.284Z,1003.33
2023-05-09T06:13:25.055Z,1003.29
2023-05-09T06:14:26.021Z,1003.27
2023-05-09T06:15:26.052Z,1003.26
2023-05-09T06:16:25.489Z,1003.30
2023-05-09T06:17:25.624Z,1003.21
2023-05-09T06:18:25.786Z,1003.29
2023-05-09T06:19:25.913Z,1003.27
2023-05-09T06:20:27.987Z,1003.25
2023-05-09T06:21:26.982Z,1003.31
2023-05-09T06:22:26.340Z,1003.37
2023-05-09T06:23:26.562Z,1003.42
2023-05-09T06:24:35.076Z,1003.33
2023-05-09T06:25:29.517Z,1003.36
2023-05-09T06:26:26.968Z,1003.34
2023-05-09T06:27:27.084Z,1003.20
2023-05-09T06:28:27.311Z,1003.24
2023-05-09T06:29:27.565Z,1003.26
2023-05-09T06:30:27.780Z,1003.27
2023-05-09T06:31:27.945Z,1003.36
2023-05-09T06:32:28.223Z,1003.40
2023-05-09T06:33:29.991Z,1003.46
2023-05-09T06:34:28.982Z,1003.50
2023-05-09T06:35:28.602Z,1003.41
2023-05-09T06:36:28.709Z,1003.46
2023-05-09T06:37:28.943Z,1003.46
2023-05-09T06:38:29.196Z,1003.41
2023-05-09T06:39:29.427Z,1003.42
2023-05-09T06:40:29.561Z,1003.50
2023-05-09T06:41:30.521Z,1003.60
2023-05-09T06:42:29.894Z,1003.47
2023-05-09T06:43:30.064Z,1003.52
2023-05-09T06:44:30.285Z,1003.52
2023-05-09T06:45:30.451Z,1003.49
2023-05-09T06:46:31.546Z,1003.52
2023-05-09T06:47:30.859Z,1003.55
2023-05-09T06:48:31.016Z,1003.58
2023-05-09T06:49:31.176Z,1003.56
2023-05-09T06:50:32.908Z,1003.57
2023-05-09T06:51:32.452Z,1003.52
2023-05-09T06:52:31.814Z,1003.48
2023-05-09T06:53:33.493Z,1003.54
2023-05-09T06:54:33.105Z,1003.46
2023-05-09T06:55:33.019Z,1003.50
2023-05-09T06:56:32.405Z,1003.43
2023-05-09T06:57:32.565Z,1003.40
2023-05-09T06:58:55.373Z,1003.44
2023-05-09T06:59:33.490Z,1003.39
2023-05-09T07:00:33.122Z,1003.34
2023-05-09T07:01:34.008Z,1003.39
2023-05-09T07:02:34.036Z,1003.36
2023-05-09T07:03:33.554Z,1003.32
2023-05-09T07:04:33.742Z,1003.37
2023-05-09T07:05:34.107Z,1003.25
2023-05-09T07:06:34.073Z,1003.27
2023-05-09T07:07:34.992Z,1003.44
2023-05-09T07:08:34.364Z,1003.32
2023-05-09T07:09:34.515Z,1003.23
2023-05-09T07:10:35.794Z,1003.24
2023-05-09T07:11:35.581Z,1003.30
2023-05-09T07:12:35.095Z,1003.32
2023-05-09T07:13:36.042Z,1003.20
2023-05-09T07:14:35.553Z,1003.20
2023-05-09T07:15:42.202Z,1003.22
2023-05-09T07:16:38.570Z,1003.26
2023-05-09T07:17:39.042Z,1003.20
2023-05-09T07:18:36.079Z,1003.23
2023-05-09T07:19:36.296Z,1003.20
2023-05-09T07:20:36.533Z,1003.19
2023-05-09T07:21:38.499Z,1003.21
2023-05-09T07:22:37.659Z,1003.30
2023-05-09T07:23:37.912Z,1003.28
2023-05-09T07:24:37.063Z,1003.26
2023-05-09T07:25:37.197Z,1003.29
2023-05-09T07:26:38.157Z,1003.28
2023-05-09T07:27:37.489Z,1003.29
2023-05-09T07:28:37.724Z,1003.37
2023-05-09T07:29:38.071Z,1003.36
2023-05-09T07:30:38.086Z,1003.41
2023-05-09T07:31:38.374Z,1003.29
2023-05-09T07:32:38.584Z,1003.41
2023-05-09T07:33:38.739Z,1003.36
2023-05-09T07:34:38.896Z,1003.28
2023-05-09T07:35:39.041Z,1003.36
2023-05-09T07:37:40.356Z,1003.32
2023-05-09T07:38:40.511Z,1003.26
2023-05-09T07:39:39.750Z,1003.26
2023-05-09T07:40:39.898Z,1003.32
2023-05-09T07:41:42.326Z,1003.28
2023-05-09T07:42:41.011Z,1003.24
2023-05-09T07:43:41.008Z,1003.21
2023-05-09T07:44:40.513Z,1003.15
2023-05-09T07:45:41.102Z,1003.09
2023-05-09T07:46:41.542Z,1003.06
2023-05-09T07:47:41.046Z,1003.14
2023-05-09T07:48:42.502Z,1003.10
2023-05-09T07:49:41.398Z,1003.11
2023-05-09T07:50:41.572Z,1003.03
2023-05-09T07:51:41.709Z,1003.08
2023-05-09T07:52:41.859Z,1003.13
2023-05-09T07:53:42.056Z,1003.10
2023-05-09T07:54:42.317Z,1003.08
2023-05-09T07:55:42.493Z,1003.08
2023-05-09T07:56:42.771Z,1003.06
2023-05-09T07:57:42.783Z,1003.11
2023-05-09T07:58:43.512Z,1003.11
2023-05-09T07:59:44.084Z,1003.03
2023-05-09T08:00:43.334Z,1003.08
2023-05-09T08:01:44.007Z,1003.08
2023-05-09T08:02:43.776Z,1003.10
2023-05-09T08:03:44.021Z,1003.03
2023-05-09T08:04:44.559Z,1002.97
2023-05-09T08:05:45.048Z,1002.97
2023-05-09T08:06:45.891Z,1002.95
2023-05-09T08:07:45.505Z,1002.95
2023-05-09T08:08:46.889Z,1002.95
2023-05-09T08:09:44.994Z,1002.90
2023-05-09T08:10:46.059Z,1002.85
2023-05-09T08:11:45.548Z,1002.89
2023-05-09T08:12:45.596Z,1002.86
2023-05-09T08:13:45.730Z,1002.78
2023-05-09T08:14:46.070Z,1002.67
2023-05-09T08:15:46.137Z,1002.68
2023-05-09T08:16:46.305Z,1002.65
2023-05-09T08:17:46.535Z,1002.55
2023-05-09T08:18:46.629Z,1002.51
2023-05-09T08:19:47.071Z,1002.44
2023-05-09T08:20:46.965Z,1002.41
2023-05-09T08:21:48.014Z,1002.39
2023-05-09T08:22:47.269Z,1002.29
2023-05-09T08:23:47.400Z,1002.24
2023-05-09T08:24:47.561Z,1002.24
2023-05-09T08:25:48.569Z,1002.19
2023-05-09T08:26:48.637Z,1002.24
2023-05-09T08:27:48.008Z,1002.22
2023-05-09T08:28:50.519Z,1002.18
2023-05-09T08:29:49.529Z,1002.27
2023-05-09T08:30:49.095Z,1002.17
2023-05-09T08:31:48.847Z,1002.28
2023-05-09T08:32:49.569Z,1002.22
2023-05-09T08:33:49.519Z,1002.22
2023-05-09T08:34:50.020Z,1002.14
2023-05-09T08:35:49.268Z,1002.21
2023-05-09T08:36:49.405Z,1002.19
2023-05-09T08:37:50.551Z,1002.22
2023-05-09T08:38:52.462Z,1002.14
2023-05-09T08:39:50.074Z,1002.14
2023-05-09T08:40:50.105Z,1002.16
2023-05-09T08:41:52.142Z,1002.15
2023-05-09T08:42:50.491Z,1002.09
2023-05-09T08:43:50.662Z,1002.16
2023-05-09T08:44:51.084Z,1002.11
2023-05-09T08:45:52.915Z,1002.12
2023-05-09T08:46:51.228Z,1002.08
2023-05-09T08:47:51.367Z,1002.11
2023-05-09T08:48:51.578Z,1002.03
2023-05-09T08:49:51.717Z,1002.04
2023-05-09T08:50:52.563Z,1002.06
2023-05-09T08:51:53.081Z,1002.05
2023-05-09T08:52:53.077Z,1002.04
2023-05-09T08:53:52.468Z,1001.99
2023-05-09T08:54:52.648Z,1002.15
2023-05-09T08:55:52.831Z,1002.10
2023-05-09T08:56:53.527Z,1002.10
2023-05-09T08:57:53.274Z,1002.08
2023-05-09T08:58:53.287Z,1002.09
2023-05-09T08:59:53.410Z,1002.03
2023-05-09T09:00:53.562Z,1002.10
2023-05-09T09:01:53.745Z,1002.05
2023-05-09T09:02:54.020Z,1002.04
2023-05-09T09:03:54.177Z,1001.99
2023-05-09T09:04:54.291Z,1001.98
2023-05-09T09:05:55.073Z,1002.01
2023-05-09T09:06:54.641Z,1001.94
2023-05-09T09:07:54.811Z,1001.94
2023-05-09T09:08:55.089Z,1002.05
2023-05-09T09:09:56.028Z,1002.07
2023-05-09T09:10:56.543Z,1002.04
2023-05-09T09:11:55.555Z,1002.11
2023-05-09T09:12:55.845Z,1002.06
2023-05-09T09:13:55.878Z,1002.01
2023-05-09T09:14:56.547Z,1001.98
2023-05-09T09:15:56.180Z,1002.03
2023-05-09T09:16:56.338Z,1002.10
2023-05-09T09:17:56.526Z,1001.93
2023-05-09T09:18:58.939Z,1002.00
2023-05-09T09:19:57.916Z,1001.92
2023-05-09T09:20:57.137Z,1001.95
2023-05-09T09:21:58.048Z,1001.86
2023-05-09T09:22:57.521Z,1001.78
2023-05-09T09:23:58.536Z,1001.77
2023-05-09T09:24:58.086Z,1001.74
2023-05-09T09:25:59.600Z,1001.69
2023-05-09T09:26:59.194Z,1001.64
2023-05-09T09:27:58.541Z,1001.57
2023-05-09T09:28:58.545Z,1001.49
2023-05-09T09:29:58.749Z,1001.47
2023-05-09T09:30:59.604Z,1001.40
2023-05-09T09:31:59.134Z,1001.35
2023-05-09T09:33:00.127Z,1001.25
2023-05-09T09:33:59.440Z,1001.24
2023-05-09T09:34:59.618Z,1001.31
2023-05-09T09:36:00.546Z,1001.24
2023-05-09T09:36:59.945Z,1001.26
2023-05-09T09:38:00.393Z,1001.28
2023-05-09T09:39:00.223Z,1001.29
2023-05-09T09:40:01.078Z,1001.26
2023-05-09T09:41:00.616Z,1001.35
2023-05-09T09:42:00.768Z,1001.39
2023-05-09T09:43:01.671Z,1001.30
2023-05-09T09:44:01.084Z,1001.27
2023-05-09T09:45:01.295Z,1001.46
2023-05-09T09:46:02.153Z,1001.36
2023-05-09T09:47:01.716Z,1001.47
2023-05-09T09:48:01.922Z,1001.36
2023-05-09T09:49:03.999Z,1001.47
2023-05-09T09:50:03.047Z,1001.52
2023-05-09T09:51:02.549Z,1001.52
2023-05-09T09:52:03.546Z,1001.48
2023-05-09T09:53:03.954Z,1001.51
2023-05-09T09:54:03.122Z,1001.64
2023-05-09T09:55:03.310Z,1001.62
2023-05-09T09:56:03.527Z,1001.62
2023-05-09T09:57:03.707Z,1001.56
2023-05-09T09:58:04.214Z,1001.56
2023-05-09T09:59:05.550Z,1001.57
2023-05-09T10:00:05.090Z,1001.59
2023-05-09T10:01:04.561Z,1001.55
2023-05-09T10:02:08.056Z,1001.46
2023-05-09T10:03:06.672Z,1001.38
2023-05-09T10:04:04.966Z,1001.39
2023-05-09T10:05:05.164Z,1001.38
2023-05-09T10:06:05.306Z,1001.26
2023-05-09T10:07:05.511Z,1001.30
2023-05-09T10:08:06.570Z,1001.19
2023-05-09T10:09:05.828Z,1001.19
2023-05-09T10:10:06.140Z,1001.13
2023-05-09T10:11:06.173Z,1001.16
2023-05-09T10:12:06.465Z,1001.12
2023-05-09T10:13:07.267Z,1001.08
2023-05-09T10:14:07.741Z,1001.12
2023-05-09T10:15:07.870Z,1001.14
2023-05-09T10:16:07.033Z,1001.11
2023-05-09T10:17:07.223Z,1001.12
2023-05-09T10:18:08.742Z,1001.13
2023-05-09T10:19:08.182Z,1001.13
2023-05-09T10:20:07.722Z,1001.13
2023-05-09T10:21:08.556Z,1001.09
2023-05-09T10:22:08.045Z,1001.12
2023-05-09T10:23:08.228Z,1001.09
2023-05-09T10:24:08.376Z,1001.06
2023-05-09T10:25:09.126Z,1001.05
2023-05-09T10:26:10.560Z,1001.09
2023-05-09T10:27:09.603Z,1000.95
2023-05-09T10:28:09.726Z,1000.88
2023-05-09T10:29:09.341Z,1000.81
2023-05-09T10:30:09.493Z,1000.61
2023-05-09T10:31:09.661Z,1000.57
2023-05-09T10:32:09.855Z,1000.44
2023-05-09T10:33:10.062Z,1000.33
2023-05-09T10:34:11.085Z,1000.36
2023-05-09T10:35:11.056Z,1000.21
2023-05-09T10:36:12.556Z,1000.15
2023-05-09T10:37:10.906Z,1000.25
2023-05-09T10:38:11.554Z,1000.26
2023-05-09T10:39:12.063Z,1000.33
2023-05-09T10:40:11.295Z,1000.21
2023-05-09T10:41:11.433Z,1000.24
2023-05-09T10:42:11.694Z,1000.26
2023-05-09T10:43:11.945Z,1000.27
2023-05-09T10:44:11.987Z,1000.36
2023-05-09T10:45:12.161Z,1000.35
2023-05-09T10:46:13.630Z,1000.34
2023-05-09T10:47:13.057Z,1000.34
2023-05-09T10:48:16.063Z,1000.36
2023-05-09T10:49:12.977Z,1000.33
2023-05-09T10:50:14.056Z,1000.33
2023-05-09T10:51:13.318Z,1000.42
2023-05-09T10:52:14.101Z,1000.40
2023-05-09T10:53:13.706Z,1000.38
2023-05-09T10:54:13.837Z,1000.46
2023-05-09T10:55:14.194Z,1000.44
2023-05-09T10:56:14.124Z,1000.40
2023-05-09T10:57:14.262Z,1000.45
2023-05-09T10:58:15.189Z,1000.49
2023-05-09T10:59:14.531Z,1000.34
2023-05-09T11:00:14.693Z,1000.42
2023-05-09T11:01:15.811Z,1000.35
2023-05-09T11:02:15.981Z,1000.29
2023-05-09T11:03:15.795Z,1000.32
2023-05-09T11:04:15.295Z,1000.34
2023-05-09T11:05:17.291Z,1000.34
2023-05-09T11:06:15.638Z,1000.31
2023-05-09T11:07:15.812Z,1000.31
2023-05-09T11:08:16.600Z,1000.33
2023-05-09T11:09:17.574Z,1000.25
2023-05-09T11:10:16.305Z,1000.22
2023-05-09T11:11:17.069Z,1000.23
2023-05-09T11:12:16.707Z,1000.24
2023-05-09T11:13:16.852Z,1000.16
2023-05-09T11:14:17.117Z,1000.26
2023-05-09T11:15:17.203Z,1000.16
2023-05-09T11:16:17.303Z,1000.07
2023-05-09T11:17:17.461Z,1000.08
2023-05-09T11:18:18.923Z,1000.00
2023-05-09T11:19:17.768Z,999.98
2023-05-09T11:20:18.575Z,999.98
2023-05-09T11:21:18.201Z,999.84
2023-05-09T11:22:19.077Z,999.83
2023-05-09T11:23:18.467Z,999.77
2023-05-09T11:24:18.641Z,999.64
2023-05-09T11:25:18.771Z,999.61
2023-05-09T11:26:18.916Z,999.56
2023-05-09T11:27:19.102Z,999.53
2023-05-09T11:28:20.737Z,999.39
2023-05-09T11:29:21.205Z,999.37
2023-05-09T11:30:19.772Z,999.25
2023-05-09T11:31:21.640Z,999.25
2023-05-09T11:32:19.901Z,999.11
2023-05-09T11:33:20.076Z,999.13
2023-05-09T11:34:20.275Z,999.11
2023-05-09T11:35:20.432Z,999.03
2023-05-09T11:36:20.659Z,999.00
2023-05-09T11:37:20.756Z,999.00
2023-05-09T11:38:21.636Z,999.08
2023-05-09T11:39:21.027Z,999.16
2023-05-09T11:40:22.078Z,999.09
2023-05-09T11:41:21.357Z,999.15
2023-05-09T11:42:22.081Z,999.06
2023-05-09T11:43:21.720Z,999.14
2023-05-09T11:44:21.880Z,999.12
2023-05-09T11:45:22.113Z,999.10
2023-05-09T11:46:22.317Z,999.13
2023-05-09T11:47:23.202Z,999.18
2023-05-09T11:48:22.743Z,999.18
2023-05-09T11:49:22.884Z,999.17
2023-05-09T11:50:23.079Z,999.14
2023-05-09T11:51:24.148Z,999.13
2023-05-09T11:52:23.981Z,999.07
2023-05-09T11:53:24.595Z,999.01
2023-05-09T11:54:24.610Z,998.90
2023-05-09T11:55:24.012Z,998.77
2023-05-09T11:56:24.161Z,998.74
2023-05-09T11:57:24.362Z,998.79
2023-05-09T11:58:25.087Z,998.70
2023-05-09T11:59:24.720Z,998.64
2023-05-09T12:00:25.008Z,998.56
2023-05-09T12:01:26.643Z,998.60
2023-05-09T12:02:25.348Z,998.54
2023-05-09T12:03:25.682Z,998.54
2023-05-09T12:04:25.615Z,998.50
2023-05-09T12:05:26.600Z,998.49
2023-05-09T12:06:26.588Z,998.44
2023-05-09T12:07:26.655Z,998.45
2023-05-09T12:08:26.325Z,998.43
2023-05-09T12:09:27.593Z,998.44
2023-05-09T12:10:26.719Z,998.40